Time;durP1;ratioP1;P1;durP2;ratioP2;P2;SDS_P1;SDS_P2;PMS_P1;PMS_P2;Temp;Humidity;BMP_temperature;BMP_pressure;BME280_temperature;BME280_humidity;BME280_pressure;Samples;Min_cycle;Max_cycle;Signal;HPM_P1;HPM_P2
2022/04/15 00:08:26;;;;;;;2.00;1.33;;;;;;;;;;20849300;28;20210;-67
2022/04/15 00:18:28;;;;;;;2.10;1.40;;;16.90;99.90;;;;;;20871243;28;20267;-67
2022/04/15 00:28:31;;;;;;;2.53;1.30;;;16.10;99.90;;;;;;20864773;28;20259;-65
2022/04/15 00:38:34;;;;;;;2.67;1.67;;;;;;;;;;20842338;28;20198;-65
2022/04/15 00:48:36;;;;;;;2.53;1.70;;;;;;;;;;20796939;28;20240;-66
2022/04/15 00:58:40;;;;;;;2.70;2.07;;;16.50;99.90;;;;;;20780687;28;20588;-67
2022/04/15 01:08:43;;;;;;;3.10;2.00;;;16.60;99.90;;;;;;20817651;28;20245;-66
2022/04/15 01:18:45;;;;;;;2.83;2.00;;;;;;;;;;20861598;28;20260;-66
2022/04/15 01:28:47;;;;;;;3.63;2.40;;;;;;;;;;20892888;28;20256;-67
2022/04/15 01:38:49;;;;;;;2.87;2.00;;;;;;;;;;20859494;28;20264;-66
2022/04/15 01:48:51;;;;;;;3.20;2.10;;;;;;;;;;20858324;28;20271;-66
2022/04/15 01:58:53;;;;;;;4.17;2.40;;;;;;;;;;20858004;28;20205;-66
2022/04/15 02:08:54;;;;;;;3.43;2.53;;;;;;;;;;20836448;28;20214;-65
2022/04/15 02:18:57;;;;;;;3.73;2.20;;;;;;;;;;20831059;28;20214;-66
2022/04/15 02:29:00;;;;;;;6.07;2.90;;;15.70;99.90;;;;;;20821401;28;20229;-66
2022/04/15 02:39:03;;;;;;;2.73;2.30;;;15.60;99.90;;;;;;20818060;28;20556;-67
2022/04/15 02:49:05;;;;;;;6.40;2.50;;;15.50;99.90;;;;;;20825928;28;20217;-68
2022/04/15 02:59:07;;;;;;;3.43;2.60;;;;;;;;;;20882539;28;20700;-67
2022/04/15 03:09:10;;;;;;;4.43;2.67;;;;;;;;;;20903059;28;20234;-68
2022/04/15 03:19:13;;;;;;;3.57;2.50;;;;;;;;;;20826196;28;20222;-67
2022/04/15 03:29:15;;;;;;;2.93;2.37;;;;;;;;;;20806133;28;20219;-66
2022/04/15 03:39:17;;;;;;;3.30;2.50;;;;;;;;;;20830836;28;20214;-66
2022/04/15 03:49:20;;;;;;;4.20;2.27;;;;;;;;;;20883313;28;20268;-66
2022/04/15 03:59:22;;;;;;;3.97;2.77;;;;;;;;;;20867284;28;20267;-66
2022/04/15 04:09:23;;;;;;;3.73;2.30;;;;;;;;;;20865265;28;20259;-66
2022/04/15 04:19:25;;;;;;;3.17;2.60;;;;;;;;;;20866195;28;20708;-66
2022/04/15 04:29:27;;;;;;;3.43;2.40;;;;;;;;;;20864809;28;20217;-66
2022/04/15 04:39:29;;;;;;;3.07;1.60;;;;;;;;;;20864129;28;20279;-66
2022/04/15 04:49:31;;;;;;;1.90;1.40;;;;;;;;;;20850108;28;20574;-66
2022/04/15 04:59:33;;;;;;;2.53;1.70;;;;;;;;;;20878926;28;20210;-66
2022/04/15 05:09:35;;;;;;;2.93;2.27;;;;;;;;;;20861563;28;20221;-66
2022/04/15 05:19:37;;;;;;;2.37;1.87;;;;;;;;;;20860634;28;20768;-66
2022/04/15 05:29:38;;;;;;;3.80;2.27;;;;;;;;;;20861090;28;20222;-66
2022/04/15 05:39:40;;;;;;;3.80;2.53;;;;;;;;;;20857855;28;20213;-66
2022/04/15 05:49:42;;;;;;;4.57;3.27;;;;;;;;;;20840574;28;20218;-66
2022/04/15 05:59:44;;;;;;;5.13;3.10;;;;;;;;;;20812881;28;20222;-66
2022/04/15 06:09:46;;;;;;;5.90;3.47;;;;;;;;;;20804424;28;20230;-66
2022/04/15 06:19:47;;;;;;;5.17;3.70;;;;;;;;;;20820211;28;20213;-67
2022/04/15 06:29:50;;;;;;;4.47;3.27;;;;;;;;;;20844394;28;20574;-67
2022/04/15 06:39:52;;;;;;;4.33;3.40;;;;;;;;;;20870243;22;20234;-70
2022/04/15 06:49:54;;;;;;;4.60;3.80;;;;;;;;;;20873025;28;20217;-71
2022/04/15 06:59:56;;;;;;;6.37;4.10;;;;;;;;;;20900734;28;20214;-72
2022/04/15 07:09:57;;;;;;;5.00;4.13;;;;;;;;;;20890741;28;20563;-71
2022/04/15 07:19:59;;;;;;;5.87;4.83;;;;;;;;;;20903223;28;20252;-70
2022/04/15 07:30:01;;;;;;;7.30;5.00;;;17.30;99.90;;;;;;20865425;28;20701;-70
2022/04/15 07:40:04;;;;;;;5.73;4.73;;;17.40;99.90;;;;;;20889339;28;20277;-72
2022/04/15 07:50:06;;;;;;;5.20;4.43;;;;;;;;;;20914928;28;20226;-69
2022/04/15 08:00:08;;;;;;;7.13;5.17;;;;;;;;;;20923922;28;20205;-70
2022/04/15 08:10:13;;;;;;;6.43;4.70;;;;;;;;;;20929186;28;20206;-70
2022/04/15 08:20:15;;;;;;;8.50;5.80;;;;;;;;;;20921124;28;20276;-70
2022/04/15 08:30:16;;;;;;;6.03;4.70;;;;;;;;;;20916903;28;20240;-74
2022/04/15 08:40:18;;;;;;;7.73;5.23;;;;;;;;;;20882213;28;20229;-72
2022/04/15 08:50:20;;;;;;;8.57;5.13;;;;;;;;;;20891221;28;20291;-71
2022/04/15 09:00:23;;;;;;;6.63;4.30;;;19.10;99.90;;;;;;20891097;28;20275;-71
2022/04/15 09:10:25;;;;;;;6.47;4.03;;;;;;;;;;20898151;28;20214;-70
2022/04/15 09:20:31;;;;;;;4.93;3.57;;;;;;;;;;20890713;28;20750;-71
2022/04/15 09:30:40;;;;;;;6.07;3.47;;;19.70;99.90;;;;;;20895824;28;20272;-71
2022/04/15 09:40:42;;;;;;;3.17;2.20;;;;;;;;;;20906197;28;20275;-71
2022/04/15 09:50:44;;;;;;;4.70;3.10;;;;;;;;;;20906896;28;20702;-72
2022/04/15 10:00:53;;;;;;;4.93;3.60;;;20.20;99.90;;;;;;20889251;28;20316;-72
2022/04/15 10:10:55;;;;;;;5.93;3.30;;;20.20;99.90;;;;;;20905889;28;20679;-72
2022/04/15 10:21:01;;;;;;;4.63;2.63;;;;;;;;;;20905136;28;20256;-72
2022/04/15 10:31:14;;;;;;;4.60;2.97;;;;;;;;;;20904534;28;20242;-72
2022/04/15 10:41:16;;;;;;;2.80;2.27;;;20.80;99.90;;;;;;20902265;28;20257;-71
2022/04/15 10:51:26;;;;;;;3.50;2.50;;;;;;;;;;20903304;28;20219;-72
2022/04/15 11:01:27;;;;;;;5.47;2.43;;;;;;;;;;20903667;28;20618;-72
2022/04/15 11:11:33;;;;;;;3.90;1.70;;;;;;;;;;20885137;28;20771;-71
2022/04/15 11:21:40;;;;;;;4.17;1.60;;;22.50;99.90;;;;;;20878137;28;20209;-72
2022/04/15 11:31:45;;;;;;;1.60;1.03;;;22.00;99.90;;;;;;20899981;28;20221;-71
2022/04/15 11:41:52;;;;;;;1.97;0.80;;;22.00;99.90;;;;;;20881795;28;20688;-72
2022/04/15 11:51:55;;;;;;;1.77;0.40;;;22.30;99.90;;;;;;20899708;28;20223;-72
2022/04/15 12:02:01;;;;;;;0.30;0.30;;;22.10;99.90;;;;;;20897505;28;20209;-72
2022/04/15 12:12:02;;;;;;;0.93;0.50;;;;;;;;;;20915003;28;20216;-72
2022/04/15 12:22:05;;;;;;;1.00;0.70;;;;;;;;;;20896405;28;20280;-72
2022/04/15 12:32:15;;;;;;;1.77;0.70;;;;;;;;;;20911980;28;20213;-72
2022/04/15 12:42:44;;;;;;;0.40;0.30;;;;;;;;;;20972027;22;20589;-64
2022/04/15 12:52:46;;;;;;;1.23;0.30;;;;;;;;;;20959759;28;20226;-64
2022/04/15 13:02:48;;;;;;;0.67;0.43;;;;;;;;;;20945538;28;20206;-64
2022/04/15 13:12:50;;;;;;;0.70;0.30;;;;;;;;;;20936218;28;20216;-64
2022/04/15 13:22:53;;;;;;;0.20;0.20;;;;;;;;;;20957785;28;20267;-64
2022/04/15 13:32:55;;;;;;;1.40;0.40;;;;;;;;;;20970776;28;20273;-64
2022/04/15 13:42:58;;;;;;;0.30;0.30;;;;;;;;;;20978992;28;20239;-64
2022/04/15 14:03:20;;;;;;;1.37;0.30;;;;;;;;;;20948690;28;20203;-65
2022/04/15 14:13:22;;;;;;;0.20;0.20;;;;;;;;;;20917448;28;20261;-64
2022/04/15 14:23:26;;;;;;;0.38;0.28;;;;;;;;;;20933496;28;20207;-64
2022/04/15 14:33:29;;;;;;;0.55;0.20;;;;;;;;;;20932742;28;20267;-65
2022/04/15 14:43:32;;;;;;;1.17;0.40;;;;;;;;;;20940595;28;20222;-65
2022/04/15 14:53:34;;;;;;;0.85;0.40;;;23.20;99.90;;;;;;20959204;28;20683;-64
2022/04/15 15:03:36;;;;;;;0.50;0.30;;;;;;;;;;20957531;28;20217;-64
2022/04/15 15:13:39;;;;;;;0.52;0.40;;;23.60;99.90;;;;;;20965227;28;20220;-64
2022/04/15 15:34:28;;;;;;;0.90;0.50;;;;;;;;;;20951920;28;20219;-64
2022/04/15 15:44:31;;;;;;;0.60;0.40;;;;;;;;;;20933318;28;20205;-65
2022/04/15 15:54:33;;;;;;;1.67;0.80;;;;;;;;;;21011928;28;20824;-64
2022/04/15 16:04:34;;;;;;;0.30;0.30;;;;;;;;;;20941554;28;20224;-64
2022/04/15 16:14:37;;;;;;;1.37;0.40;;;;;;;;;;20936707;28;20347;-64
2022/04/15 16:24:42;;;;;;;1.17;0.40;;;;;;;;;;20940149;28;20265;-64
2022/04/15 16:34:44;;;;;;;0.57;0.30;;;;;;;;;;20941753;28;20219;-64
2022/04/15 16:44:46;;;;;;;1.43;0.53;;;;;;;;;;20940713;28;20224;-64
2022/04/15 17:05:09;;;;;;;0.40;0.40;;;;;;;;;;20953423;28;20319;-64
2022/04/15 17:15:11;;;;;;;1.37;0.80;;;;;;;;;;20915913;28;20215;-64
2022/04/15 17:25:15;;;;;;;1.07;0.80;;;;;;;;;;20919878;28;20680;-64
2022/04/15 17:35:17;;;;;;;1.03;0.80;;;;;;;;;;20930361;28;20269;-64
2022/04/15 17:45:20;;;;;;;1.13;0.83;;;;;;;;;;20915091;28;20214;-64
2022/04/15 17:55:22;;;;;;;1.57;0.90;;;;;;;;;;20921444;28;20572;-63
2022/04/15 18:05:24;;;;;;;2.77;0.90;;;;;;;;;;20927406;28;20285;-64
2022/04/15 18:15:26;;;;;;;2.30;0.70;;;20.30;99.90;;;;;;20912799;28;20216;-65
2022/04/15 18:25:32;;;;;;;0.70;0.50;;;20.00;99.90;;;;;;20929920;28;20701;-66
2022/04/15 18:35:34;;;;;;;0.60;0.50;;;;;;;;;;20958749;28;20225;-66
2022/04/15 18:45:36;;;;;;;1.17;0.50;;;;;;;;;;20892562;22;20272;-71
2022/04/15 18:55:38;;;;;;;1.97;0.63;;;;;;;;;;20900436;28;20224;-71
2022/04/15 19:05:39;;;;;;;1.90;0.53;;;;;;;;;;20901219;28;20258;-71
2022/04/15 19:15:42;;;;;;;0.77;0.50;;;;;;;;;;20901058;28;20211;-71
2022/04/15 19:25:45;;;;;;;0.93;0.57;;;19.30;99.90;;;;;;20897370;28;20273;-72
2022/04/15 19:35:47;;;;;;;0.40;0.30;;;;;;;;;;20845572;28;20595;-73
2022/04/15 19:45:49;;;;;;;0.47;0.40;;;;;;;;;;20907663;28;20223;-74
2022/04/15 20:01:02;;;;;;;0.60;0.40;;;;;;;;;;20892446;28;20219;-72
2022/04/15 20:06:12;;;;;;;0.60;0.40;;;;;;;;;;20892149;28;20728;-72
2022/04/15 20:16:14;;;;;;;0.50;0.43;;;;;;;;;;20895704;28;20668;-72
2022/04/15 20:26:16;;;;;;;0.90;0.60;;;;;;;;;;20907142;28;20686;-73
2022/04/15 20:36:18;;;;;;;1.00;0.53;;;;;;;;;;20904177;28;20272;-73
2022/04/15 20:46:20;;;;;;;1.50;0.80;;;;;;;;;;20900373;28;20223;-74
2022/04/15 20:56:22;;;;;;;0.97;0.50;;;;;;;;;;20902311;28;20794;-74
2022/04/15 21:06:24;;;;;;;0.77;0.50;;;;;;;;;;20901503;28;20751;-74
2022/04/15 21:16:26;;;;;;;1.83;0.70;;;;;;;;;;20900856;28;20218;-74
2022/04/15 21:26:35;;;;;;;1.20;0.60;;;;;;;;;;20902809;28;20967;-73
2022/04/15 21:36:37;;;;;;;0.50;0.40;;;;;;;;;;20903618;28;20636;-74
2022/04/15 21:46:39;;;;;;;0.73;0.50;;;;;;;;;;20906388;28;20217;-73
2022/04/15 21:56:40;;;;;;;0.67;0.50;;;16.80;99.90;;;;;;20907263;28;20240;-73
2022/04/15 22:06:42;;;;;;;0.87;0.63;;;;;;;;;;20900712;28;20214;-71
2022/04/15 22:16:44;;;;;;;0.93;0.60;;;;;;;;;;20902853;28;20210;-74
2022/04/15 22:26:46;;;;;;;0.53;0.47;;;;;;;;;;20905311;28;20221;-73
2022/04/15 22:36:47;;;;;;;0.60;0.50;;;;;;;;;;20904914;28;20279;-73
2022/04/15 22:46:52;;;;;;;0.90;0.70;;;;;;;;;;20909844;28;20233;-73
2022/04/15 22:57:08;;;;;;;0.90;0.53;;;;;;;;;;20887017;28;20232;-69
2022/04/15 23:07:11;;;;;;;0.97;0.60;;;;;;;;;;20896945;28;20263;-73
2022/04/15 23:17:12;;;;;;;1.10;0.70;;;;;;;;;;20911520;28;20277;-72
2022/04/15 23:27:14;;;;;;;0.97;0.60;;;;;;;;;;20918497;28;20202;-74
2022/04/15 23:37:17;;;;;;;1.30;0.90;;;;;;;;;;20913885;28;20271;-73
2022/04/15 23:57:39;;;;;;;1.43;0.60;;;;;;;;;;20916027;28;20225;-69
